| time (UTC) | temp F | wind direction | speed MPH | gust MPH | rain 1hr in | rain 24hr in | rain mn in | humidity % | barometer mb |
| 20260510110101 | 0 | 0.0 | 0.0 | 0.00 | 0.46 | 0.00 | 1014.6 | ||
| 20260510104601 | 0 | 0.0 | 0.0 | 0.00 | 0.46 | 0.00 | 1014.3 | ||
| 20260510103047 | 0 | 0.0 | 0.0 | 0.00 | 0.46 | 0.00 | 1014.2 | ||
| 20260510101543 | 0 | 0.0 | 0.0 | 0.00 | 0.46 | 0.00 | 1013.9 | ||
| 20260510100039 | 0 | 0.0 | 0.0 | 0.00 | 0.46 | 0.00 | 1013.9 | ||
| 20260510094546 | 67 | 48 | 0.0 | 0.0 | 0.00 | 0.46 | 0.00 | 8 | 1013.8 |
| 20260510093041 | 67 | 48 | 0.0 | 0.0 | 0.00 | 0.46 | 0.00 | 8 | 1013.7 |
| 20260510091527 | 67 | 48 | 0.0 | 0.0 | 0.00 | 0.46 | 0.00 | 8 | 1013.5 |
| 20260510090025 | 68 | 48 | 0.0 | 0.0 | 0.00 | 0.46 | 0.00 | 8 | 1013.3 |
| 20260510084518 | 68 | 48 | 0.0 | 0.0 | 0.00 | 0.46 | 0.00 | 7 | 1013.2 |
| 20260510083013 | 68 | 48 | 0.0 | 0.0 | 0.00 | 0.46 | 0.00 | 7 | 1013.0 |
| 20260510081514 | 69 | 48 | 0.0 | 0.0 | 0.00 | 0.46 | 0.00 | 6 | 1013.0 |
| 20260510080004 | 69 | 48 | 0.0 | 0.0 | 0.00 | 0.46 | 0.00 | 6 | 1012.8 |
| 20260510074600 | 69 | 48 | 0.0 | 0.0 | 0.00 | 0.46 | 0.00 | 6 | 1012.9 |
| 20260510073055 | 69 | 48 | 0.0 | 0.0 | 0.00 | 0.46 | 0.00 | 6 | 1012.9 |
| 20260510071555 | 69 | 48 | 0.0 | 0.0 | 0.00 | 0.46 | 0.00 | 5 | 1013.0 |
| 20260510070047 | 69 | 48 | 0.0 | 0.0 | 0.00 | 0.46 | 0.00 | 5 | 1013.0 |
| 20260510064542 | 70 | 48 | 0.0 | 0.0 | 0.00 | 0.46 | 0.00 | 4 | 1013.1 |
| 20260510063038 | 70 | 48 | 0.0 | 0.0 | 0.00 | 0.46 | 0.00 | 4 | 1012.9 |
| 20260510061534 | 70 | 48 | 0.0 | 0.0 | 0.00 | 0.46 | 0.00 | 4 | 1013.1 |
| 20260510060029 | 70 | 48 | 0.0 | 0.0 | 0.00 | 0.46 | 0.00 | 4 | 1013.3 |
| 20260510054525 | 70 | 48 | 0.0 | 0.0 | 0.00 | 0.46 | 0.00 | 5 | 1013.4 |
| 20260510053044 | 70 | 48 | 0.0 | 0.0 | 0.00 | 0.46 | 0.00 | 5 | 1013.5 |
| 20260510051517 | 70 | 48 | 0.0 | 0.0 | 0.00 | 0.46 | 0.00 | 6 | 1013.6 |
| 20260510050018 | 70 | 48 | 0.0 | 0.0 | 0.00 | 0.46 | 0.00 | 7 | 1013.9 |
| 20260510044512 | 69 | 48 | 0.0 | 0.0 | 0.00 | 0.46 | 0.00 | 8 | 1014.2 |
| 20260510043009 | 69 | 48 | 0.0 | 0.0 | 0.00 | 0.46 | 0.00 | 8 | 1014.5 |
| 20260510041509 | 69 | 48 | 0.0 | 0.0 | 0.00 | 0.46 | 0.00 | 9 | 1014.7 |
| 20260510040007 | 69 | 48 | 0.0 | 0.0 | 0.00 | 0.46 | 0.46 | 9 | 1014.7 |
| 20260510034600 | 69 | 48 | 0.0 | 0.0 | 0.00 | 0.46 | 0.46 | 10 | 1014.7 |
| 20260510033107 | 69 | 48 | 0.0 | 0.0 | 0.00 | 0.46 | 0.46 | 10 | 1014.6 |
| 20260510031554 | 70 | 48 | 0.0 | 0.0 | 0.00 | 0.46 | 0.46 | 10 | 1014.6 |
| 20260510030049 | 70 | 48 | 0.0 | 0.0 | 0.00 | 0.46 | 0.46 | 10 | 1014.5 |
| 20260510024547 | 70 | 48 | 0.0 | 0.0 | 0.00 | 0.46 | 0.46 | 10 | 1014.6 |
| 20260510023039 | 70 | 48 | 0.0 | 0.0 | 0.00 | 0.46 | 0.46 | 10 | 1014.4 |
| 20260510021542 | 70 | 48 | 0.0 | 0.0 | 0.00 | 0.46 | 0.46 | 10 | 1014.3 |
| 20260510020030 | 70 | 48 | 0.0 | 0.0 | 0.00 | 0.46 | 0.46 | 10 | 1014.0 |
| 20260510014529 | 70 | 48 | 0.0 | 0.0 | 0.00 | 0.46 | 0.46 | 10 | 1013.7 |
| 20260510013025 | 70 | 48 | 0.0 | 0.0 | 0.00 | 0.46 | 0.46 | 11 | 1013.6 |
| 20260510011517 | 70 | 48 | 0.0 | 0.0 | 0.00 | 0.46 | 0.46 | 12 | 1013.3 |
| 20260510010013 | 70 | 48 | 0.0 | 0.0 | 0.00 | 0.46 | 0.46 | 12 | 1013.3 |
| 20260510004509 | 70 | 48 | 0.0 | 0.0 | 0.00 | 0.46 | 0.46 | 13 | 1012.8 |
| 20260510003005 | 71 | 48 | 0.0 | 0.0 | 0.00 | 0.46 | 0.46 | 14 | 1013.0 |
| 20260510001600 | 71 | 48 | 0.0 | 0.0 | 0.01 | 0.46 | 0.46 | 13 | 1013.1 |
| 20260510000100 | 71 | 48 | 0.0 | 0.0 | 0.03 | 0.46 | 0.46 | 13 | 1013.2 |
| 20260509234551 | 71 | 48 | 0.0 | 0.0 | 0.05 | 0.46 | 0.46 | 14 | 1013.0 |
| 20260509233047 | 71 | 48 | 0.0 | 0.0 | 0.06 | 0.46 | 0.46 | 15 | 1013.5 |
| 20260509231545 | 71 | 48 | 0.0 | 0.0 | 0.05 | 0.45 | 0.45 | 16 | 1013.8 |
| 20260509230038 | 72 | 48 | 0.0 | 0.0 | 0.03 | 0.43 | 0.43 | 16 | 1013.9 |
| 20260509224533 | 72 | 48 | 0.0 | 0.0 | 0.01 | 0.41 | 0.41 | 15 | 1014.1 |
| 20260509223031 | 72 | 48 | 0.0 | 0.0 | 0.00 | 0.40 | 0.40 | 14 | 1014.0 |
| 20260509221525 | 72 | 48 | 0.0 | 0.0 | 0.00 | 0.40 | 0.40 | 16 | 1013.5 |
| 20260509220022 | 72 | 48 | 0.0 | 0.0 | 0.00 | 0.40 | 0.40 | 17 | 1013.5 |
| 20260509214516 | 72 | 48 | 0.0 | 0.0 | 0.00 | 0.40 | 0.40 | 17 | 1013.4 |
| 20260509213024 | 73 | 48 | 0.0 | 0.0 | 0.00 | 0.40 | 0.40 | 18 | 1013.2 |
| 20260509211508 | 73 | 48 | 0.0 | 0.0 | 0.00 | 0.40 | 0.40 | 20 | 1012.9 |
| 20260509210004 | 73 | 48 | 0.0 | 0.0 | 0.00 | 0.67 | 0.40 | 22 | 1012.8 |
| 20260509204559 | 73 | 48 | 0.0 | 0.0 | 0.00 | 0.67 | 0.40 | 22 | 1012.9 |
| 20260509203105 | 73 | 48 | 0.0 | 0.0 | 0.00 | 0.67 | 0.40 | 22 | 1012.9 |
| 20260509201551 | 74 | 48 | 0.0 | 0.0 | 0.01 | 0.67 | 0.40 | 25 | 1012.9 |
| 20260509200046 | 74 | 48 | 0.0 | 0.0 | 0.01 | 0.67 | 0.40 | 26 | 1012.8 |
| 20260509194544 | 76 | 48 | 0.0 | 0.0 | 0.01 | 0.67 | 0.40 | 21 | 1012.9 |
| 20260509193037 | 77 | 48 | 0.0 | 0.0 | 0.01 | 0.67 | 0.40 | 21 | 1012.8 |
| 20260509191547 | 77 | 49 | 0.0 | 0.0 | 0.00 | 0.66 | 0.39 | 22 | 1012.8 |
| 20260509190032 | 77 | 49 | 0.0 | 0.0 | 0.17 | 0.66 | 0.39 | 23 | 1013.1 |
| 20260509184534 | 78 | 49 | 0.0 | 0.0 | 0.38 | 0.66 | 0.39 | 26 | 1012.9 |
| 20260509183029 | 78 | 48 | 0.0 | 0.0 | 0.39 | 0.66 | 0.39 | 42 | 1013.0 |
| 20260509181516 | 79 | 48 | 0.0 | 0.0 | 0.39 | 0.66 | 0.39 | 49 | 1013.0 |
| 20260509180014 | 81 | 49 | 0.0 | 0.0 | 0.16 | 0.43 | 0.16 | 56 | 1013.2 |
| 20260509174507 | 82 | 49 | 0.0 | 0.0 | 0.01 | 0.28 | 0.01 | 59 | 1013.0 |
| 20260509173001 | 82 | 49 | 0.0 | 0.0 | 0.00 | 0.27 | 0.00 | 63 | 1013.1 |
| 20260509171559 | 82 | 49 | 0.0 | 0.0 | 0.00 | 0.27 | 0.00 | 64 | 1013.3 |
| 20260509170059 | 82 | 49 | 0.0 | 0.0 | 0.00 | 0.27 | 0.00 | 65 | 1013.3 |
| 20260509164549 | 82 | 49 | 0.0 | 0.0 | 0.00 | 0.27 | 0.00 | 63 | 1013.3 |
| 20260509163044 | 82 | 49 | 0.0 | 0.0 | 0.00 | 0.27 | 0.00 | 62 | 1013.5 |
| 20260509161540 | 81 | 49 | 0.0 | 0.0 | 0.00 | 0.27 | 0.00 | 59 | 1013.5 |
| 20260509160037 | 80 | 49 | 0.0 | 0.0 | 0.00 | 0.27 | 0.00 | 59 | 1013.6 |
| 20260509154531 | 80 | 49 | 0.0 | 0.0 | 0.00 | 0.27 | 0.00 | 53 | 1013.2 |
| 20260509153034 | 80 | 49 | 0.0 | 0.0 | 0.00 | 0.27 | 0.00 | 53 | 1013.2 |
| 20260509151523 | 79 | 49 | 0.0 | 0.0 | 0.00 | 0.27 | 0.00 | 51 | 1013.3 |
| 20260509150018 | 79 | 49 | 0.0 | 0.0 | 0.00 | 0.27 | 0.00 | 45 | 1013.4 |
| 20260509144513 | 78 | 49 | 0.0 | 0.0 | 0.00 | 0.27 | 0.00 | 40 | 1013.3 |
| 20260509143009 | 77 | 49 | 0.0 | 0.0 | 0.00 | 0.27 | 0.00 | 25 | 1013.6 |
| 20260509141505 | 76 | 49 | 0.0 | 0.0 | 0.00 | 0.27 | 0.00 | 21 | 1013.7 |
| 20260509140103 | 75 | 49 | 0.0 | 0.0 | 0.00 | 0.27 | 0.00 | 16 | 1013.6 |
| 20260509134555 | 74 | 49 | 0.0 | 0.0 | 0.00 | 0.27 | 0.00 | 6 | 1013.5 |
| 20260509133052 | 73 | 49 | 0.0 | 0.0 | 0.00 | 0.27 | 0.00 | 3 | 1013.5 |
| 20260509131548 | 73 | 49 | 0.0 | 0.0 | 0.00 | 0.27 | 0.00 | 2 | 1013.3 |
| 20260509130046 | 72 | 49 | 0.0 | 0.0 | 0.00 | 0.27 | 0.00 | 2 | 1013.1 |
| 20260509124548 | 71 | 49 | 0.0 | 0.0 | 0.00 | 0.27 | 0.00 | 2 | 1013.1 |
| 20260509123035 | 70 | 49 | 0.0 | 0.0 | 0.00 | 0.27 | 0.00 | 4 | 1013.1 |
| 20260509121532 | 69 | 49 | 0.0 | 0.0 | 0.00 | 0.27 | 0.00 | 6 | 1013.0 |
| 20260509120029 | 68 | 49 | 0.0 | 0.0 | 0.00 | 0.27 | 0.00 | 8 | 1013.0 |
| 20260509114527 | 67 | 49 | 0.0 | 0.0 | 0.00 | 0.27 | 0.00 | 1012.9 | |
| 20260509113025 | 0 | 0.0 | 0.0 | 0.00 | 0.27 | 0.00 | 1012.6 | ||
| 20260509111518 | 0 | 0.0 | 0.0 | 0.00 | 0.27 | 0.00 | 1012.3 |